Time;durP1;ratioP1;P1;durP2;ratioP2;P2;SDS_P1;SDS_P2;PMS_P1;PMS_P2;Temp;Humidity;BMP_temperature;BMP_pressure;BME280_temperature;BME280_humidity;BME280_pressure;Samples;Min_cycle;Max_cycle;Signal;HPM_P1;HPM_P2
2021/04/07 00:01:28;;;;;;;0.30;0.30;;;;;;;;;;5063444;28;20203;-69
2021/04/07 00:03:53;;;;;;;0.30;0.30;;;;;;;;;;5063181;28;20204;-70
2021/04/07 00:06:19;;;;;;;0.30;0.30;;;;;;;;;;5062854;28;20211;-72
2021/04/07 00:08:49;;;;;;;0.30;0.30;;;;;;;;;;5055652;28;20219;-70
2021/04/07 00:11:14;;;;;;;0.30;0.30;;;;;;;;;;5061405;28;20206;-69
2021/04/07 00:13:41;;;;;;;0.30;0.30;;;;;;;;;;5055757;28;20208;-70
2021/04/07 00:16:07;;;;;;;0.30;0.30;;;;;;;;;;5064023;28;20242;-70
2021/04/07 00:18:33;;;;;;;0.30;0.30;;;;;;;;;;5063950;28;20290;-71
2021/04/07 00:20:59;;;;;;;0.30;0.30;;;;;;;;;;5050752;28;20363;-70
2021/04/07 00:23:24;;;;;;;0.30;0.30;;;;;;;;;;5063325;28;20235;-70
2021/04/07 00:25:50;;;;;;;0.30;0.30;;;;;;;;;;5060235;28;20258;-70
2021/04/07 00:28:20;;;;;;;0.30;0.30;;;;;;;;;;5063911;28;20212;-70
2021/04/07 00:30:47;;;;;;;0.30;0.30;;;;;;;;;;5063829;28;20200;-71
2021/04/07 00:33:14;;;;;;;0.30;0.30;;;;;;;;;;5063973;28;20223;-71
2021/04/07 00:35:40;;;;;;;0.30;0.30;;;;;;;;;;5063482;28;20356;-70
2021/04/07 00:38:06;;;;;;;0.30;0.30;;;;;;;;;;5060293;28;20259;-70
2021/04/07 00:40:32;;;;;;;0.30;0.30;;;;;;;;;;5060416;28;20215;-71
2021/04/07 00:42:59;;;;;;;0.30;0.30;;;;;;;;;;5063252;28;20200;-70
2021/04/07 00:45:25;;;;;;;0.30;0.30;;;;;;;;;;5067667;28;20200;-71
2021/04/07 00:47:53;;;;;;;0.30;0.30;;;;;;;;;;5053698;28;20207;-70
2021/04/07 00:50:19;;;;;;;0.33;0.33;;;;;;;;;;5060531;28;20215;-70
2021/04/07 00:52:45;;;;;;;0.30;0.30;;;;;;;;;;5056473;28;20227;-70
2021/04/07 00:55:12;;;;;;;0.30;0.30;;;;;;;;;;5062569;28;20214;-70
2021/04/07 00:57:39;;;;;;;0.30;0.30;;;;;;;;;;5067861;28;20204;-70
2021/04/07 01:00:05;;;;;;;0.30;0.30;;;;;;;;;;5056586;28;20211;-70
2021/04/07 01:02:31;;;;;;;0.20;0.20;;;;;;;;;;5056164;28;20419;-69
2021/04/07 01:04:57;;;;;;;0.30;0.30;;;;;;;;;;5064736;28;20253;-70
2021/04/07 01:07:23;;;;;;;0.30;0.30;;;;;;;;;;5067147;28;20502;-70
2021/04/07 01:09:49;;;;;;;0.30;0.30;;;;;;;;;;5065825;28;20214;-71
2021/04/07 01:12:15;;;;;;;0.20;0.20;;;;;;;;;;5066917;28;20433;-70
2021/04/07 01:14:41;;;;;;;0.20;0.20;;;;;;;;;;5065932;28;20211;-71
2021/04/07 01:17:07;;;;;;;0.30;0.30;;;;;;;;;;5067148;28;20211;-70
2021/04/07 01:19:33;;;;;;;0.20;0.20;;;;;;;;;;5066568;28;20291;-70
2021/04/07 01:22:00;;;;;;;0.20;0.20;;;;;;;;;;5057019;28;20354;-70
2021/04/07 01:24:26;;;;;;;0.20;0.20;;;;;;;;;;5062507;28;20242;-70
2021/04/07 01:26:53;;;;;;;0.23;0.23;;;;;;;;;;5064399;28;20212;-70
2021/04/07 01:29:19;;;;;;;0.23;0.23;;;;;;;;;;5060822;28;20200;-71
2021/04/07 01:31:46;;;;;;;0.20;0.20;;;;;;;;;;5067172;28;20410;-70
2021/04/07 01:34:17;;;;;;;0.20;0.20;;;;;;;;;;5060512;28;20491;-70
2021/04/07 01:36:42;;;;;;;0.20;0.20;;;;;;;;;;5065567;28;20491;-70
2021/04/07 01:39:08;;;;;;;0.30;0.30;;;;;;;;;;5066552;28;20200;-70
2021/04/07 01:41:36;;;;;;;0.30;0.30;;;;;;;;;;5062833;28;20204;-70
2021/04/07 01:44:01;;;;;;;0.20;0.20;;;;;;;;;;5061570;28;20248;-69
2021/04/07 01:46:27;;;;;;;0.30;0.30;;;;;;;;;;5062519;28;20200;-70
2021/04/07 01:48:53;;;;;;;0.20;0.20;;;;;;;;;;5062025;28;20210;-70
2021/04/07 01:51:19;;;;;;;0.30;0.30;;;;;;;;;;5066611;28;20203;-70
2021/04/07 01:53:45;;;;;;;0.27;0.27;;;;;;;;;;5066085;28;20200;-70
2021/04/07 01:56:11;;;;;;;0.30;0.30;;;;;;;;;;5065079;28;20210;-71
2021/04/07 01:58:38;;;;;;;0.20;0.20;;;;;;;;;;5065657;28;20467;-70
2021/04/07 02:01:03;;;;;;;0.30;0.30;;;;;;;;;;5057920;28;20220;-71
2021/04/07 02:03:29;;;;;;;0.20;0.20;;;;;;;;;;5056724;28;20199;-70
2021/04/07 02:05:55;;;;;;;0.70;0.70;;;;;;;;;;5058145;28;20280;-70
2021/04/07 02:08:21;;;;;;;0.20;0.20;;;;;;;;;;5065899;28;20215;-70
2021/04/07 02:10:47;;;;;;;0.20;0.20;;;;;;;;;;5059978;28;20231;-70
2021/04/07 02:13:13;;;;;;;0.20;0.20;;;;;;;;;;5058944;28;20232;-70
2021/04/07 02:15:40;;;;;;;0.30;0.30;;;;;;;;;;5052869;28;20276;-70
2021/04/07 02:18:05;;;;;;;0.30;0.30;;;;;;;;;;5056867;28;20203;-71
2021/04/07 02:20:31;;;;;;;0.30;0.30;;;;;;;;;;5063462;28;20230;-72
2021/04/07 02:22:57;;;;;;;0.30;0.30;;;;;;;;;;5054581;28;20236;-71
2021/04/07 02:25:23;;;;;;;0.27;0.27;;;;;;;;;;5058543;28;20199;-70
2021/04/07 02:27:48;;;;;;;0.30;0.30;;;;;;;;;;5057068;28;20203;-71
2021/04/07 02:30:16;;;;;;;0.30;0.30;;;;;;;;;;5064231;28;20208;-70
2021/04/07 02:32:42;;;;;;;0.30;0.30;;;;;;;;;;5064058;28;20542;-71
2021/04/07 02:35:09;;;;;;;0.30;0.30;;;;;;;;;;5065332;28;20212;-70
2021/04/07 02:37:35;;;;;;;0.30;0.30;;;;;;;;;;5060942;28;20212;-70
2021/04/07 02:40:01;;;;;;;0.30;0.30;;;;;;;;;;5061359;28;20211;-70
2021/04/07 02:42:27;;;;;;;0.30;0.30;;;;;;;;;;5065127;28;20264;-70
2021/04/07 02:44:52;;;;;;;0.30;0.30;;;;;;;;;;5065326;28;20498;-70
2021/04/07 02:47:18;;;;;;;0.30;0.30;;;;;;;;;;5065489;28;20199;-70
2021/04/07 02:49:45;;;;;;;0.30;0.30;;;;;;;;;;5065202;28;20200;-71
2021/04/07 02:52:11;;;;;;;0.30;0.30;;;;;;;;;;5051784;28;20294;-70
2021/04/07 02:54:37;;;;;;;0.30;0.30;;;;;;;;;;5053953;28;20232;-70
2021/04/07 02:57:04;;;;;;;0.30;0.30;;;;;;;;;;5048101;28;20426;-70
2021/04/07 02:59:29;;;;;;;0.30;0.30;;;;;;;;;;5057627;28;20318;-70
2021/04/07 03:01:55;;;;;;;0.30;0.30;;;;;;;;;;5064561;28;20303;-70
2021/04/07 03:04:21;;;;;;;0.30;0.30;;;;;;;;;;5065092;28;20200;-70
2021/04/07 03:06:47;;;;;;;0.30;0.30;;;;;;;;;;5057145;28;20547;-69
2021/04/07 03:09:13;;;;;;;0.30;0.30;;;;;;;;;;5059843;28;20227;-70
2021/04/07 03:11:39;;;;;;;0.30;0.30;;;;;;;;;;5063708;28;20220;-69
2021/04/07 03:14:05;;;;;;;0.30;0.30;;;;;;;;;;5061588;28;20200;-70
2021/04/07 03:16:31;;;;;;;0.30;0.30;;;;;;;;;;5059261;28;20204;-70
2021/04/07 03:18:57;;;;;;;0.30;0.30;;;;;;;;;;5063119;28;20215;-70
2021/04/07 03:21:23;;;;;;;0.30;0.30;;;;;;;;;;5063163;28;20200;-70
2021/04/07 03:23:49;;;;;;;0.30;0.30;;;;;;;;;;5062364;28;20236;-70
2021/04/07 03:26:15;;;;;;;0.30;0.30;;;;;;;;;;5063412;28;20211;-71
2021/04/07 03:28:41;;;;;;;0.30;0.30;;;;;;;;;;5064313;28;20402;-70
2021/04/07 03:31:06;;;;;;;0.30;0.30;;;;;;;;;;5064042;28;20200;-72
2021/04/07 03:33:34;;;;;;;0.30;0.30;;;;;;;;;;5054837;28;20254;-70
2021/04/07 03:36:01;;;;;;;0.30;0.30;;;;;;;;;;5060382;28;20208;-70
2021/04/07 03:38:27;;;;;;;0.30;0.30;;;;;;;;;;5056574;28;20207;-70
2021/04/07 03:40:54;;;;;;;0.30;0.30;;;;;;;;;;5062917;28;20204;-70
2021/04/07 03:43:20;;;;;;;0.30;0.30;;;;;;;;;;5064623;28;20226;-70
2021/04/07 03:45:47;;;;;;;0.30;0.30;;;;;;;;;;5064779;28;20204;-71
2021/04/07 03:48:13;;;;;;;0.30;0.30;;;;;;;;;;5053780;28;20285;-70
2021/04/07 03:50:39;;;;;;;0.30;0.30;;;;;;;;;;5055293;28;20206;-70
2021/04/07 03:53:05;;;;;;;0.20;0.20;;;;;;;;;;5064633;28;20223;-71
2021/04/07 03:55:31;;;;;;;0.30;0.30;;;;;;;;;;5052236;28;20436;-70
2021/04/07 03:57:57;;;;;;;0.20;0.20;;;;;;;;;;5063962;28;20226;-70
2021/04/07 04:00:23;;;;;;;0.30;0.30;;;;;;;;;;5051038;28;20510;-70
2021/04/07 04:02:49;;;;;;;0.20;0.20;;;;;;;;;;5064176;28;20222;-70
2021/04/07 04:05:15;;;;;;;0.20;0.20;;;;;;;;;;5054889;28;20481;-73
2021/04/07 04:07:41;;;;;;;0.20;0.20;;;;;;;;;;5057867;28;20214;-71
2021/04/07 04:10:07;;;;;;;0.30;0.30;;;;;;;;;;5058177;28;20267;-70
2021/04/07 04:12:33;;;;;;;0.30;0.30;;;;;;;;;;5061059;28;20414;-71
2021/04/07 04:15:00;;;;;;;0.30;0.30;;;;;;;;;;5058513;28;20200;-70
2021/04/07 04:17:26;;;;;;;0.23;0.23;;;;;;;;;;5061052;28;20207;-72
2021/04/07 04:19:51;;;;;;;0.30;0.30;;;;;;;;;;5054512;28;20439;-70
2021/04/07 04:22:17;;;;;;;1.70;1.60;;;;;;;;;;5068051;28;20500;-71
2021/04/07 04:24:43;;;;;;;0.30;0.30;;;;;;;;;;5066783;28;20275;-70
2021/04/07 04:27:09;;;;;;;0.20;0.20;;;;;;;;;;5067919;28;20510;-72
2021/04/07 04:29:35;;;;;;;0.30;0.30;;;;;;;;;;5066122;28;20382;-71
2021/04/07 04:32:02;;;;;;;0.20;0.20;;;;;;;;;;5068034;28;20224;-71
2021/04/07 04:34:28;;;;;;;0.30;0.30;;;;;;;;;;5067792;28;20338;-72
2021/04/07 04:36:54;;;;;;;0.33;0.33;;;;;;;;;;5059986;28;20204;-71
2021/04/07 04:39:20;;;;;;;0.30;0.30;;;;;;;;;;5066009;28;20215;-72
2021/04/07 04:41:45;;;;;;;0.40;0.40;;;;;;;;;;5062261;28;20200;-70
2021/04/07 04:44:11;;;;;;;0.30;0.30;;;;;;;;;;5049966;28;20208;-72
2021/04/07 04:46:37;;;;;;;0.30;0.30;;;;;;;;;;5065785;28;20244;-71
2021/04/07 04:49:03;;;;;;;0.30;0.30;;;;;;;;;;5060125;28;20228;-71
2021/04/07 04:51:29;;;;;;;0.30;0.30;;;;;;;;;;5066579;28;20208;-71
2021/04/07 04:53:55;;;;;;;0.30;0.30;;;;;;;;;;5067515;28;20204;-72
2021/04/07 04:56:21;;;;;;;0.30;0.30;;;;;;;;;;5055786;28;20205;-70
2021/04/07 04:58:47;;;;;;;0.20;0.20;;;;;;;;;;5067101;28;20271;-69
2021/04/07 05:01:12;;;;;;;0.20;0.20;;;;;;;;;;5064281;28;20490;-71
2021/04/07 05:03:38;;;;;;;0.30;0.30;;;;;;;;;;5064345;28;20208;-71
2021/04/07 05:06:05;;;;;;;0.20;0.20;;;;;;;;;;5066569;28;20204;-70
2021/04/07 05:08:31;;;;;;;0.30;0.30;;;;;;;;;;5067057;28;20204;-69
2021/04/07 05:10:57;;;;;;;0.27;0.27;;;;;;;;;;5059933;28;20475;-71
2021/04/07 05:13:23;;;;;;;0.30;0.30;;;;;;;;;;5059709;28;20228;-72
2021/04/07 05:15:49;;;;;;;0.30;0.30;;;;;;;;;;5066578;28;20204;-71
2021/04/07 05:18:15;;;;;;;0.30;0.30;;;;;;;;;;5065678;28;20210;-69
2021/04/07 05:20:41;;;;;;;0.20;0.20;;;;;;;;;;5061916;28;20201;-71
2021/04/07 05:23:09;;;;;;;0.20;0.20;;;;;;;;;;5064833;28;20258;-72
2021/04/07 05:25:35;;;;;;;0.30;0.30;;;;;;;;;;5066572;28;20491;-70
2021/04/07 05:28:01;;;;;;;0.20;0.20;;;;;;;;;;5066883;28;20510;-72
2021/04/07 05:30:27;;;;;;;0.30;0.30;;;;;;;;;;5065559;28;20200;-71
2021/04/07 05:32:53;;;;;;;0.30;0.30;;;;;;;;;;5063577;28;20220;-71
2021/04/07 05:35:19;;;;;;;0.30;0.30;;;;;;;;;;5059095;28;20228;-71
2021/04/07 05:37:44;;;;;;;0.30;0.30;;;;;;;;;;5058571;28;20192;-71
2021/04/07 05:40:12;;;;;;;0.30;0.30;;;;;;;;;;5053796;28;20399;-71
2021/04/07 05:42:37;;;;;;;0.90;0.90;;;;;;;;;;5059585;28;20391;-71
2021/04/07 05:45:04;;;;;;;0.30;0.30;;;;;;;;;;5051083;28;20208;-71
2021/04/07 05:47:29;;;;;;;0.30;0.30;;;;;;;;;;5054647;28;20373;-70
2021/04/07 05:49:55;;;;;;;0.20;0.20;;;;;;;;;;5061936;28;20275;-70
2021/04/07 05:52:21;;;;;;;0.20;0.20;;;;;;;;;;5064186;28;20226;-71
2021/04/07 05:54:47;;;;;;;0.30;0.30;;;;;;;;;;5053846;28;20236;-71
2021/04/07 05:57:13;;;;;;;0.30;0.30;;;;;;;;;;5065924;28;20200;-71
2021/04/07 05:59:39;;;;;;;0.27;0.27;;;;;;;;;;5066070;28;20216;-71
2021/04/07 06:02:05;;;;;;;0.30;0.30;;;;;;;;;;5056391;28;20469;-71
2021/04/07 06:04:31;;;;;;;0.30;0.30;;;;;;;;;;5064792;28;20252;-70
2021/04/07 06:06:56;;;;;;;0.30;0.30;;;;;;;;;;5065763;28;20245;-71
2021/04/07 06:09:22;;;;;;;0.30;0.30;;;;;;;;;;5065706;28;20196;-71
2021/04/07 06:11:48;;;;;;;0.30;0.30;;;;;;;;;;5055585;28;20248;-70
2021/04/07 06:14:17;;;;;;;0.20;0.20;;;;;;;;;;5064123;28;20255;-70
2021/04/07 06:16:43;;;;;;;0.30;0.30;;;;;;;;;;5060202;28;20258;-70
2021/04/07 06:19:09;;;;;;;0.30;0.30;;;;;;;;;;5065424;28;20278;-71
2021/04/07 06:21:35;;;;;;;0.30;0.30;;;;;;;;;;5065378;28;20212;-70
2021/04/07 06:24:01;;;;;;;0.30;0.30;;;;;;;;;;5064935;28;20307;-72
2021/04/07 06:26:27;;;;;;;0.20;0.20;;;;;;;;;;5065490;28;20450;-70
2021/04/07 06:28:53;;;;;;;0.23;0.23;;;;;;;;;;5062908;28;20211;-70
2021/04/07 06:31:19;;;;;;;2.47;1.03;;;;;;;;;;5065606;28;20279;-70
2021/04/07 06:33:45;;;;;;;0.20;0.20;;;;;;;;;;5067093;28;20276;-71
2021/04/07 06:36:11;;;;;;;0.20;0.20;;;;;;;;;;5064971;28;20196;-72
2021/04/07 06:38:38;;;;;;;0.20;0.20;;;;;;;;;;5064253;28;20203;-71
2021/04/07 06:41:04;;;;;;;0.20;0.20;;;;;;;;;;5064047;28;20271;-72
2021/04/07 06:43:32;;;;;;;0.30;0.30;;;;;;;;;;5065077;28;20554;-71
2021/04/07 06:45:58;;;;;;;0.20;0.20;;;;;;;;;;5065200;28;20330;-71
2021/04/07 06:48:24;;;;;;;0.23;0.23;;;;;;;;;;5057707;28;20203;-70
2021/04/07 06:50:51;;;;;;;0.20;0.20;;;;;;;;;;5065071;28;20215;-71
2021/04/07 06:53:18;;;;;;;0.20;0.20;;;;;;;;;;5064192;28;20220;-71
2021/04/07 06:55:44;;;;;;;0.20;0.20;;;;;;;;;;5063666;28;20222;-70
2021/04/07 06:58:10;;;;;;;0.30;0.30;;;;;;;;;;5064709;28;20200;-69
2021/04/07 07:00:37;;;;;;;0.20;0.20;;;;;;;;;;5065186;28;20203;-70
2021/04/07 07:03:03;;;;;;;0.30;0.30;;;;;;;;;;5064638;28;20227;-71
2021/04/07 07:05:30;;;;;;;0.20;0.20;;;;;;;;;;5061930;28;20200;-71
2021/04/07 07:07:59;;;;;;;0.20;0.20;;;;;;;;;;5059052;28;20263;-72
2021/04/07 07:10:32;;;;;;;0.20;0.20;;;;;;;;;;5062267;28;20475;-71
2021/04/07 07:12:58;;;;;;;0.20;0.20;;;;;;;;;;5057237;28;20515;-70
2021/04/07 07:15:24;;;;;;;0.20;0.20;;;;;;;;;;5060380;28;20238;-71
2021/04/07 07:17:50;;;;;;;0.30;0.30;;;;;;;;;;5060241;28;20208;-72
2021/04/07 07:20:25;;;;;;;0.27;0.27;;;;;;;;;;5057249;28;20200;-70
2021/04/07 07:22:52;;;;;;;0.30;0.30;;;;;;;;;;5060818;28;20543;-71
2021/04/07 07:25:18;;;;;;;0.20;0.20;;;;;;;;;;5061614;28;20433;-70
2021/04/07 07:27:44;;;;;;;0.30;0.30;;;;;;;;;;5056131;28;20208;-71
2021/04/07 07:30:10;;;;;;;0.30;0.30;;;;;;;;;;5048638;28;20201;-71
2021/04/07 07:32:37;;;;;;;0.20;0.20;;;;;;;;;;5057874;28;20326;-71
2021/04/07 07:35:07;;;;;;;0.30;0.30;;;;;;;;;;5058152;28;20517;-71
2021/04/07 07:37:33;;;;;;;0.20;0.20;;;;;;;;;;5049636;28;20208;-70
2021/04/07 07:39:59;;;;;;;0.27;0.27;;;;;;;;;;5056884;28;20241;-71
2021/04/07 07:42:25;;;;;;;0.27;0.27;;;;;;;;;;5056106;28;20234;-71
2021/04/07 07:44:51;;;;;;;0.20;0.20;;;;;;;;;;5052053;28;20212;-71
2021/04/07 07:47:19;;;;;;;0.30;0.30;;;;;;;;;;5059031;28;20265;-71
2021/04/07 07:49:53;;;;;;;0.20;0.20;;;;;;;;;;5055362;28;20487;-71
2021/04/07 07:52:25;;;;;;;0.20;0.20;;;;;;;;;;5055984;28;20222;-71
2021/04/07 07:54:51;;;;;;;0.20;0.20;;;;;;;;;;5050496;28;20205;-71
2021/04/07 07:57:17;;;;;;;0.20;0.20;;;;;;;;;;5055885;28;20195;-71
2021/04/07 07:59:43;;;;;;;0.30;0.30;;;;;;;;;;5057630;28;20212;-71
2021/04/07 08:02:14;;;;;;;0.30;0.30;;;;;;;;;;5056055;28;20255;-70
2021/04/07 08:04:44;;;;;;;0.20;0.20;;;;;;;;;;5061210;28;20218;-71
2021/04/07 08:07:10;;;;;;;0.30;0.30;;;;;;;;;;5052491;28;20196;-70
2021/04/07 08:09:36;;;;;;;0.20;0.20;;;;;;;;;;5060421;28;20239;-71
2021/04/07 08:12:02;;;;;;;0.20;0.20;;;;;;;;;;5055725;28;20609;-70
2021/04/07 08:14:29;;;;;;;0.20;0.20;;;;;;;;;;5060454;28;20384;-71
2021/04/07 08:16:56;;;;;;;0.20;0.20;;;;;;;;;;5058992;28;20200;-71
2021/04/07 08:19:23;;;;;;;0.20;0.20;;;;;;;;;;5058650;28;20204;-70
2021/04/07 08:21:52;;;;;;;0.20;0.20;;;;;;;;;;5061568;28;20483;-70
2021/04/07 08:24:18;;;;;;;0.20;0.20;;;;;;;;;;5063044;28;20207;-71
2021/04/07 08:26:45;;;;;;;0.20;0.20;;;;;;;;;;5062893;28;20196;-71
2021/04/07 08:29:11;;;;;;;0.30;0.30;;;;;;;;;;5065964;28;20394;-70
2021/04/07 08:31:39;;;;;;;0.20;0.20;;;;;;;;;;5063272;28;20269;-71
2021/04/07 08:34:09;;;;;;;0.20;0.20;;;;;;;;;;5062739;28;20232;-71
2021/04/07 08:36:36;;;;;;;0.20;0.20;;;;;;;;;;5062920;28;20205;-70
2021/04/07 08:39:05;;;;;;;0.20;0.20;;;;;;;;;;5059700;28;20212;-71
2021/04/07 08:41:32;;;;;;;0.20;0.20;;;;;;;;;;5062983;28;20212;-70
2021/04/07 08:43:59;;;;;;;0.20;0.20;;;;;;;;;;5062318;28;20373;-70
2021/04/07 08:46:27;;;;;;;0.20;0.20;;;;;;;;;;5060176;28;20200;-71
2021/04/07 08:48:54;;;;;;;0.20;0.20;;;;;;;;;;5063273;28;20201;-71
2021/04/07 08:51:22;;;;;;;0.20;0.20;;;;;;;;;;5057123;28;20226;-71
2021/04/07 08:53:50;;;;;;;0.20;0.20;;;;;;;;;;5054542;28;20360;-70
2021/04/07 08:56:17;;;;;;;0.20;0.20;;;;;;;;;;5050566;28;20361;-71
2021/04/07 08:58:50;;;;;;;0.20;0.20;;;;;;;;;;5060161;28;20204;-72
2021/04/07 09:01:20;;;;;;;0.20;0.20;;;;;;;;;;5067054;28;20261;-70
2021/04/07 09:03:46;;;;;;;0.20;0.20;;;;;;;;;;5060792;28;20543;-70
2021/04/07 09:06:14;;;;;;;0.20;0.20;;;;;;;;;;5066669;28;20211;-71
2021/04/07 09:08:51;;;;;;;0.53;0.53;;;;;;;;;;5059954;28;20207;-72
2021/04/07 09:11:24;;;;;;;0.20;0.20;;;;;;;;;;5066609;28;20383;-70
2021/04/07 09:13:50;;;;;;;0.20;0.20;;;;;;;;;;5062087;28;20266;-71
2021/04/07 09:16:16;;;;;;;0.20;0.20;;;;;;;;;;5059149;28;20229;-70
2021/04/07 09:18:43;;;;;;;0.20;0.20;;;;;;;;;;5063615;28;20206;-70
2021/04/07 09:21:21;;;;;;;0.20;0.20;;;;;;;;;;5051732;28;20382;-70
2021/04/07 09:23:51;;;;;;;0.20;0.20;;;;;;;;;;5054498;28;20278;-70
2021/04/07 09:26:19;;;;;;;0.20;0.20;;;;;;;;;;5056918;28;20248;-69
2021/04/07 09:28:46;;;;;;;0.10;0.10;;;;;;;;;;5051975;28;20424;-72
2021/04/07 09:31:14;;;;;;;0.20;0.20;;;;;;;;;;5056065;28;20250;-71
2021/04/07 09:33:41;;;;;;;0.20;0.20;;;;;;;;;;5062151;28;20300;-71
2021/04/07 09:36:07;;;;;;;0.20;0.20;;;;;;;;;;5054934;28;20276;-69
2021/04/07 09:38:34;;;;;;;0.20;0.20;;;;;;;;;;5062494;28;20400;-70
2021/04/07 09:41:02;;;;;;;0.20;0.20;;;;;;;;;;5060498;28;20225;-70
2021/04/07 09:43:30;;;;;;;0.20;0.20;;;;;;;;;;5054763;28;20203;-71
2021/04/07 09:45:55;;;;;;;0.20;0.20;;;;;;;;;;5056935;28;20215;-70
2021/04/07 09:48:21;;;;;;;0.20;0.20;;;;;;;;;;5056338;28;20206;-72
2021/04/07 09:50:47;;;;;;;0.20;0.20;;;;;;;;;;5059882;28;20203;-71
2021/04/07 09:53:25;;;;;;;0.20;0.20;;;;;;;;;;5055545;28;20226;-70
2021/04/07 09:55:58;;;;;;;0.20;0.20;;;;;;;;;;5060175;28;20200;-70
2021/04/07 09:58:25;;;;;;;0.20;0.20;;;;;;;;;;5058892;28;20308;-70
2021/04/07 10:00:51;;;;;;;0.20;0.20;;;;;;;;;;5065114;28;20214;-71
2021/04/07 10:03:17;;;;;;;1.23;1.23;;;;;;;;;;5060326;28;20205;-71
2021/04/07 10:05:43;;;;;;;0.20;0.20;;;;;;;;;;5054973;28;20207;-70
2021/04/07 10:08:12;;;;;;;0.20;0.20;;;;;;;;;;5056859;28;20208;-70
2021/04/07 10:10:38;;;;;;;9.53;7.53;;;;;;;;;;5056007;28;20208;-70
2021/04/07 10:13:05;;;;;;;0.20;0.20;;;;;;;;;;5058069;28;20234;-69
2021/04/07 10:15:32;;;;;;;0.10;0.10;;;;;;;;;;5065492;28;20453;-70
2021/04/07 10:17:58;;;;;;;0.20;0.20;;;;;;;;;;5063365;28;20444;-69
2021/04/07 10:20:27;;;;;;;0.20;0.20;;;;;;;;;;5058624;28;20210;-71
2021/04/07 10:22:55;;;;;;;0.20;0.20;;;;;;;;;;5056142;28;20537;-69
2021/04/07 10:25:22;;;;;;;0.10;0.10;;;;;;;;;;5060324;28;20512;-70
2021/04/07 10:27:49;;;;;;;0.20;0.20;;;;;;;;;;5059586;28;20368;-69
2021/04/07 10:30:16;;;;;;;0.20;0.20;;;;;;;;;;5055875;28;20222;-70
2021/04/07 10:32:43;;;;;;;0.20;0.20;;;;;;;;;;5057106;28;20279;-69
2021/04/07 10:35:09;;;;;;;0.20;0.20;;;;;;;;;;5058849;28;20491;-72
2021/04/07 10:37:36;;;;;;;0.20;0.20;;;;;;;;;;5064851;28;20210;-73
2021/04/07 10:40:02;;;;;;;0.10;0.10;;;;;;;;;;5065350;28;20216;-73
2021/04/07 10:42:29;;;;;;;0.20;0.20;;;;;;;;;;5064997;28;20202;-72
2021/04/07 10:44:58;;;;;;;0.20;0.20;;;;;;;;;;5056820;28;20251;-76
2021/04/07 10:47:25;;;;;;;0.20;0.20;;;;;;;;;;5063575;28;20404;-76
2021/04/07 10:49:52;;;;;;;0.20;0.20;;;;;;;;;;5065842;28;20205;-76
2021/04/07 10:52:28;;;;;;;0.63;0.63;;;;;;;;;;5058103;28;20262;-73
2021/04/07 10:54:55;;;;;;;0.20;0.20;;;;;;;;;;5066034;28;20546;-76
2021/04/07 10:57:29;;;;;;;0.20;0.20;;;;;;;;;;5065657;28;20198;-75
2021/04/07 10:59:55;;;;;;;0.20;0.20;;;;;;;;;;5062831;28;20260;-77
2021/04/07 11:02:21;;;;;;;0.10;0.10;;;;;;;;;;5064006;28;20199;-78
2021/04/07 11:04:47;;;;;;;0.20;0.20;;;;;;;;;;5065178;28;20490;-76
2021/04/07 11:07:16;;;;;;;0.20;0.20;;;;;;;;;;5063586;28;20402;-76
2021/04/07 11:09:45;;;;;;;0.10;0.10;;;;;;;;;;5061305;28;20422;-77
2021/04/07 11:12:12;;;;;;;0.10;0.10;;;;;;;;;;5065378;28;20572;-76
2021/04/07 11:14:39;;;;;;;0.10;0.10;;;;;;;;;;5062311;28;20203;-78
2021/04/07 11:17:05;;;;;;;0.23;0.23;;;;;;;;;;5061468;28;20210;-77
2021/04/07 11:19:37;;;;;;;0.20;0.20;;;;;;;;;;5057107;28;20209;-78
2021/04/07 11:22:04;;;;;;;0.20;0.20;;;;;;;;;;5062410;28;20412;-79
2021/04/07 11:24:31;;;;;;;0.20;0.20;;;;;;;;;;5058045;28;20467;-78
2021/04/07 11:26:57;;;;;;;0.20;0.20;;;;;;;;;;5058267;28;20316;-80
2021/04/07 11:29:23;;;;;;;0.20;0.20;;;;;;;;;;5061102;28;20225;-78
2021/04/07 11:31:52;;;;;;;0.20;0.20;;;;;;;;;;5053371;28;20206;-77
2021/04/07 11:34:22;;;;;;;0.20;0.20;;;;;;;;;;5062420;28;20319;-78
2021/04/07 11:36:57;;;;;;;0.20;0.20;;;;;;;;;;5059566;28;20208;-77
2021/04/07 11:39:32;;;;;;;0.20;0.20;;;;;;;;;;5056739;28;20204;-80
2021/04/07 11:42:05;;;;;;;0.20;0.20;;;;;;;;;;5055882;28;20265;-78
2021/04/07 11:44:32;;;;;;;0.20;0.20;;;;;;;;;;5056619;28;20198;-78
2021/04/07 11:46:59;;;;;;;0.20;0.20;;;;;;;;;;5062866;28;20208;-79
2021/04/07 11:49:25;;;;;;;0.20;0.20;;;;;;;;;;5053092;28;20205;-78
2021/04/07 11:51:50;;;;;;;0.20;0.20;;;;;;;;;;5061368;28;20255;-80
2021/04/07 11:54:16;;;;;;;0.20;0.20;;;;;;;;;;5052489;28;20489;-77
2021/04/07 11:56:44;;;;;;;0.20;0.20;;;;;;;;;;5055144;28;20207;-78
2021/04/07 11:59:11;;;;;;;0.20;0.20;;;;;;;;;;5057924;28;20205;-77
2021/04/07 12:01:37;;;;;;;0.20;0.20;;;;;;;;;;5058502;28;20250;-76
2021/04/07 12:04:04;;;;;;;0.20;0.20;;;;;;;;;;5057486;28;20266;-77
2021/04/07 12:06:29;;;;;;;0.20;0.20;;;;;;;;;;5056945;28;20224;-78
2021/04/07 12:08:55;;;;;;;0.20;0.20;;;;;;;;;;5057313;28;20198;-76
2021/04/07 12:11:22;;;;;;;0.20;0.20;;;;;;;;;;5056182;28;20207;-77
2021/04/07 12:13:47;;;;;;;0.20;0.20;;;;;;;;;;5060097;28;20270;-79
2021/04/07 12:16:14;;;;;;;0.20;0.20;;;;;;;;;;5056386;28;20421;-79
2021/04/07 12:18:40;;;;;;;0.20;0.20;;;;;;;;;;5060179;28;20217;-76
2021/04/07 12:21:06;;;;;;;0.10;0.10;;;;;;;;;;5061910;28;20269;-75
2021/04/07 12:23:32;;;;;;;0.10;0.10;;;;;;;;;;5057698;28;20540;-78
2021/04/07 12:25:58;;;;;;;0.20;0.20;;;;;;;;;;5056429;28;20322;-80
2021/04/07 12:28:25;;;;;;;0.20;0.20;;;;;;;;;;5056735;28;20284;-76
2021/04/07 12:30:51;;;;;;;0.20;0.20;;;;;;;;;;5057488;28;20207;-75
2021/04/07 12:33:19;;;;;;;0.20;0.20;;;;;;;;;;5059969;28;20230;-76
2021/04/07 12:35:45;;;;;;;0.20;0.20;;;;;;;;;;5066626;28;20216;-77
2021/04/07 12:38:11;;;;;;;0.20;0.20;;;;;;;;;;5063690;28;20209;-77
2021/04/07 12:40:37;;;;;;;0.20;0.20;;;;;;;;;;5057645;28;20217;-74
2021/04/07 12:43:04;;;;;;;0.20;0.20;;;;;;;;;;5063493;28;20205;-76
2021/04/07 12:45:30;;;;;;;0.20;0.20;;;;;;;;;;5067594;28;20210;-74
2021/04/07 12:47:55;;;;;;;0.20;0.20;;;;;;;;;;5060794;28;20230;-74
2021/04/07 12:50:22;;;;;;;0.20;0.20;;;;;;;;;;5066311;28;20248;-75
2021/04/07 12:52:48;;;;;;;0.20;0.20;;;;;;;;;;5057801;28;20238;-74
2021/04/07 12:55:14;;;;;;;0.20;0.20;;;;;;;;;;5063510;28;20200;-75
2021/04/07 12:57:41;;;;;;;0.20;0.20;;;;;;;;;;5060952;28;20207;-75
2021/04/07 13:00:07;;;;;;;0.20;0.20;;;;;;;;;;5061551;28;20222;-76
2021/04/07 13:02:35;;;;;;;0.20;0.20;;;;;;;;;;5067792;28;20324;-77
2021/04/07 13:05:01;;;;;;;0.20;0.20;;;;;;;;;;5066715;28;20402;-75
2021/04/07 13:07:28;;;;;;;0.20;0.20;;;;;;;;;;5067978;28;20504;-75
2021/04/07 13:09:54;;;;;;;0.20;0.20;;;;;;;;;;5064385;28;20233;-76
2021/04/07 13:12:20;;;;;;;0.20;0.20;;;;;;;;;;5067791;28;20262;-75
2021/04/07 13:14:46;;;;;;;0.20;0.20;;;;;;;;;;5066710;28;20277;-76
2021/04/07 13:17:16;;;;;;;0.10;0.10;;;;;;;;;;5068250;28;20392;-74
2021/04/07 13:19:46;;;;;;;0.20;0.20;;;;;;;;;;5067452;28;20255;-75
2021/04/07 13:22:12;;;;;;;0.10;0.10;;;;;;;;;;5065435;28;20269;-75
2021/04/07 13:24:38;;;;;;;0.20;0.20;;;;;;;;;;5065076;28;20208;-76
2021/04/07 13:27:05;;;;;;;0.20;0.20;;;;;;;;;;5061730;28;20498;-76
2021/04/07 13:29:31;;;;;;;0.20;0.20;;;;;;;;;;5063944;28;20207;-74
2021/04/07 13:31:57;;;;;;;0.20;0.20;;;;;;;;;;5063738;28;20210;-79
2021/04/07 13:34:32;;;;;;;0.20;0.20;;;;;;;;;;5068057;28;20246;-78
2021/04/07 13:37:01;;;;;;;0.20;0.20;;;;;;;;;;5066375;28;20204;-77
2021/04/07 13:39:37;;;;;;;0.20;0.20;;;;;;;;;;5053369;28;20205;-79
2021/04/07 13:44:49;;;;;;;0.20;0.20;;;;;;;;;;5066118;28;20221;-79
2021/04/07 13:47:21;;;;;;;0.20;0.20;;;;;;;;;;5068009;28;20391;-78
2021/04/07 13:49:47;;;;;;;0.20;0.20;;;;;;;;;;5067212;28;20198;-78
2021/04/07 13:52:13;;;;;;;0.20;0.20;;;;;;;;;;5059654;28;20207;-77
2021/04/07 13:54:42;;;;;;;0.20;0.20;;;;;;;;;;5067025;28;20210;-81
2021/04/07 13:57:18;;;;;;;0.20;0.20;;;;;;;;;;5067085;28;20349;-77
2021/04/07 13:59:44;;;;;;;0.20;0.20;;;;;;;;;;5069110;28;20437;-78
2021/04/07 14:02:10;;;;;;;0.20;0.20;;;;;;;;;;5068652;28;20194;-79
2021/04/07 14:04:36;;;;;;;0.20;0.20;;;;;;;;;;5061032;28;20427;-78
2021/04/07 14:07:02;;;;;;;0.20;0.20;;;;;;;;;;5063056;28;20257;-77
2021/04/07 14:09:28;;;;;;;0.20;0.20;;;;;;;;;;5058424;28;20202;-81
2021/04/07 14:11:54;;;;;;;0.20;0.20;;;;;;;;;;5065653;28;20236;-78
2021/04/07 14:14:21;;;;;;;0.20;0.20;;;;;;;;;;5062487;28;20239;-78
2021/04/07 14:16:47;;;;;;;0.20;0.20;;;;;;;;;;5063670;28;20206;-77
2021/04/07 14:19:13;;;;;;;0.20;0.20;;;;;;;;;;5064801;28;20209;-77
2021/04/07 14:21:39;;;;;;;0.20;0.20;;;;;;;;;;5064985;28;20368;-79
2021/04/07 14:24:05;;;;;;;0.20;0.20;;;;;;;;;;5066560;28;20455;-78
2021/04/07 14:26:32;;;;;;;0.20;0.20;;;;;;;;;;5066335;28;20212;-77
2021/04/07 14:28:57;;;;;;;0.40;0.40;;;;;;;;;;5068799;28;20266;-79
2021/04/07 14:31:24;;;;;;;0.20;0.20;;;;;;;;;;5067113;28;20213;-75
2021/04/07 14:33:50;;;;;;;0.20;0.20;;;;;;;;;;5063988;28;20229;-74
2021/04/07 14:36:16;;;;;;;0.20;0.20;;;;;;;;;;5066247;28;20266;-76
2021/04/07 14:38:42;;;;;;;0.20;0.20;;;;;;;;;;5059255;28;20211;-77
2021/04/07 14:41:08;;;;;;;0.20;0.20;;;;;;;;;;5064298;28;20266;-77
2021/04/07 14:43:34;;;;;;;0.20;0.20;;;;;;;;;;5065881;28;20245;-77